Аэропорт: Емельяново. Красноярск

ICAO: UNKL

METAR:
2021-01-20 04:00:00
UNKL 200400Z 28006MPS CAVOK M24/M29 Q1024 R29/810260 NOSIG RMK QFE742
METAR:
2021-01-20 01:57:00
TAF UNKL 200157Z 2003/2103 27003G10MPS 9999 SCT016 TEMPO 2003/2006 4000 -SN FM201900 12003MPS 6000 NSC TEMPO 2021/2103 3600 BR